Pagina principală
METAR-TAF:

METAR-TAF

Aeroporturi :

Insula Wake, Statele Unite ale Americii

Latitudine: 19-17N, longitudine: 166-39E, elevație: 4 m

Observații meteo curente

Raportul a fost făcut în urmă cu 3 ore și 43 de minute, la 13:55 UTC
Vânt 13 kt de la Nord-est
Temperatură 27°C
Umiditate 66%
Presiune 1015 hPa
Vizibilitate: 8.0 km
Nori puțini la o înălțime de 2600 picior
pâclă

METAR: PWAK 211355Z AUTO 05013KT 5SM HZ FEW026 27/20 A2996 RMK AO2 SLP151 T02670198

Ora: 05:38 (17:38 UTC)

Prognoză

Raportul a fost făcut în urmă cu 11 ore și 38 de minute, la 06:00 UTC
Prognoză valabilă de la 21 ora 06 UTC la 22 ora 12 UTC
Vânt 15 kt de la Nord-est
Vizibilitate de 10 km sau mai mult
Nori împrăștiați la o înălțime de 2500 picior
Nori împrăștiați la o înălțime de 4000 picior

TAF: PWAK 210600Z 2106/2212 05015KT 9999 SCT025 SCT040 QNH2994INS TX31/2202Z TN25/2118Z FOR MIL USE ONLY

Observații și prognoze meteo pentru peste 4.000 de aeroporturi (rapoarte METAR și TAF).

Stațiile disponibile sunt reprezentate pe hartă prin puncte galbene și roșii.

Țineți indicatorul mouse-ului pe punctul dorit pentru a vedea denumirea stației.

Apoi, faceți clic pentru a vedea observațiile și prognozele meteorologice.

Pentru a schimba harta: Pentru mărire, faceți clic pe butoanele verzi cu cruce neagră; pentru micșorare, pe butonul verde cu o liniuță; pentru hărți învecinate, pe săgețile verzi.


METAR-TAF: